Latest Weather Observations for Woolshed

IDQ60801

Issued at 11:32 am EST Saturday 4 July 2015 (issued every 30 minutes, with the page automatically refreshed every 10 minutes)

About weather observations | Map of weather stations | Latest weather observations for QLD | Other Formats
Station Details ID: 033307 Name: WOOLSHED Lat: -19.42 Lon: 146.54 Height: 556.04 m
Data from the previous 72 hours. | See also: Recent months at Woolshed
Date/Time
EST
Temp
°C
App
Temp
°C
Dew
Point
Rel
Hum
%
Delta-T
°C
Wind Press
QNH
hPa
Press
MSL
hPa
Rain
since 9 am
mm
Dir
 
Spd
km/h
Gust
km/h
Spd
kts
Gust
kts
04/11:00am 18.3 17.2 10.7 61 4.2 E 7 17 4 9 1021.6 1020.2 0.0
04/10:30am 17.5 16.3 10.4 63 3.9 E 7 15 4 8 1021.7 1020.4 0.0
04/10:00am 17.2 16.2 11.0 67 3.4 E 7 17 4 9 1021.7 1020.4 0.0
04/09:30am 16.1 15.0 10.6 70 3.0 E 7 11 4 6 1021.7 1020.4 0.0
04/09:00am 14.8 13.7 10.0 73 2.6 E 6 13 3 7 1021.4 1020.0 0.2
04/08:30am 13.9 12.6 9.3 74 2.4 E 6 11 3 6 1021.1 1019.7 0.2
04/08:00am 12.6 11.4 9.4 81 1.7 ESE 6 9 3 5 1020.8 1019.4 0.2
04/07:30am 11.3 9.8 9.2 87 1.1 ESE 7 13 4 7 1020.5 1019.1 0.2
04/07:00am 10.5 9.4 8.6 88 1.0 E 4 7 2 4 1020.2 1018.8 0.2
04/06:30am 10.4 9.3 8.5 88 1.0 ESE 4 7 2 4 1020.1 1018.6 0.2
04/06:00am 10.5 9.0 8.3 86 1.1 ESE 6 11 3 6 1019.7 1018.3 0.2
04/05:30am 11.1 9.5 8.8 86 1.2 SE 7 15 4 8 1019.5 1018.1 0.2
04/05:00am 11.2 9.9 9.3 88 1.0 SE 6 15 3 8 1019.6 1018.2 0.2
04/04:30am 11.3 10.1 9.4 88 1.0 SE 6 15 3 8 1019.7 1018.3 0.2
04/04:00am 11.3 9.9 9.6 89 0.9 ESE 7 13 4 7 1019.5 1018.1 0.2
04/03:30am 11.3 10.1 9.7 90 0.8 ESE 6 11 3 6 1019.7 1018.3 0.2
04/03:00am 11.6 10.9 9.9 89 0.9 SE 4 13 2 7 1019.7 1018.3 0.2
04/02:30am 11.2 10.2 10.3 94 0.5 ESE 6 13 3 7 1019.9 1018.5 0.2
04/02:00am 11.0 11.2 10.4 96 0.3 CALM 0 4 0 2 1020.2 1018.8 0.2
04/01:30am 10.7 10.8 10.1 96 0.3 CALM 0 0 0 0 1020.5 1019.1 0.2
04/01:00am 11.2 11.4 10.4 95 0.4 CALM 0 4 0 2 1020.7 1019.3 0.2
04/12:30am 11.8 11.8 11.0 95 0.4 ENE 2 4 1 2 1021.1 1019.7 0.2
04/12:00am 11.4 11.4 11.1 98 0.2 ENE 2 6 1 3 1021.2 1019.8 0.2
 
Date/Time
EST
Temp
°C
App
Temp
°C
Dew
Point
Rel
Hum
%
Delta-T
°C
Wind Press
QNH
hPa
Press
MSL
hPa
Rain
since 9 am
mm
Dir
 
Spd
km/h
Gust
km/h
Spd
kts
Gust
kts
03/11:30pm 11.3 11.6 10.8 97 0.3 CALM 0 0 0 0 1021.3 1019.9 0.2
03/11:00pm 11.1 11.2 10.2 94 0.5 CALM 0 0 0 0 1021.4 1020.0 0.0
03/10:30pm 12.0 12.4 11.2 95 0.4 CALM 0 0 0 0 1021.4 1020.0 0.0
03/10:00pm 12.8 13.4 12.0 95 0.4 CALM 0 0 0 0 1021.3 1019.9 0.0
03/09:30pm 13.4 13.4 12.5 94 0.5 NE 4 6 2 3 1021.3 1019.9 0.0
03/09:00pm 13.3 13.5 11.9 91 0.8 N 2 6 1 3 1021.0 1019.6 0.0
03/08:30pm 14.1 13.7 12.5 90 0.9 NNE 6 11 3 6 1020.8 1019.4 0.0
03/08:00pm 14.5 14.1 12.5 88 1.1 NNE 6 13 3 7 1020.6 1019.2 0.0
03/07:30pm 14.8 14.3 12.7 87 1.2 NNE 7 13 4 7 1020.3 1018.9 0.0
03/07:00pm 14.8 14.4 12.3 85 1.4 NNE 6 9 3 5 1019.9 1018.5 0.0
03/06:30pm 15.4 14.9 12.2 81 1.8 N 6 11 3 6 1019.6 1018.2 0.0
03/06:00pm 16.1 15.6 12.1 77 2.2 N 6 11 3 6 1019.3 1017.9 0.0
03/05:30pm 17.4 16.8 11.7 69 3.2 N 6 11 3 6 1019.0 1017.6 0.0
03/05:00pm 18.5 17.4 10.8 61 4.3 NNE 7 13 4 7 1018.6 1017.1 0.0
03/04:30pm 20.2 19.2 8.8 48 6.2 ESE 4 6 2 3 1018.4 1016.9 0.0
03/04:00pm 21.7 20.3 8.9 44 7.0 ESE 6 9 3 5 1018.3 1016.8 0.0
03/03:30pm 21.4 20.9 9.3 46 6.6 SSW 2 6 1 3 1018.2 1016.7 0.0
03/03:00pm 21.7 20.2 8.6 43 7.1 E 6 13 3 7 1018.2 1016.7 0.0
03/02:30pm 20.9 20.5 9.8 49 6.1 SSE 2 6 1 3 1018.5 1017.0 0.0
03/02:00pm 20.5 19.1 9.7 50 5.9 WNW 7 13 4 7 1018.8 1017.4 0.0
03/01:30pm 19.9 18.9 10.3 54 5.3 SE 6 9 3 5 1019.1 1017.7 0.0
03/01:00pm 19.7 18.8 10.7 56 5.0 SE 6 11 3 6 1019.5 1018.1 0.0
03/12:30pm 19.3 18.3 10.3 56 5.0 SE 6 13 3 7 1019.9 1018.5 0.0
03/12:00pm 18.8 18.0 11.1 61 4.3 SSE 6 9 3 5 1020.6 1019.2 0.0
03/11:30am 18.8 17.8 11.1 61 4.3 SSE 7 13 4 7 1021.0 1019.6 0.0
03/11:00am 18.9 18.1 11.2 61 4.3 SSE 6 9 3 5 1021.3 1019.9 0.0
03/10:30am 19.2 18.2 11.0 59 4.6 ESE 7 15 4 8 1021.4 1020.0 0.0
03/10:00am 18.4 17.9 11.9 66 3.7 ESE 6 13 3 7 1021.5 1020.1 0.0
03/09:30am 17.5 16.6 11.3 67 3.5 ESE 7 15 4 8 1021.5 1020.1 0.0
03/09:00am 16.3 16.0 12.8 80 2.0 SE 6 11 3 6 1021.3 1019.9 0.0
03/08:30am 14.9 15.7 14.7 99 0.1 SE 4 7 2 4 1021.0 1019.6 0.0
03/08:00am 12.8 13.6 12.6 99 0.1 CALM 0 2 0 1 1020.7 1019.3 0.0
03/07:30am 10.3 10.0 10.1 99 0.1 NNE 2 4 1 2 1020.3 1018.9 0.0
03/07:00am 8.9 7.8 8.6 98 0.1 NNE 4 4 2 2 1020.1 1018.6 0.0
03/06:30am 8.9 8.6 8.6 98 0.2 CALM 0 0 0 0 1019.6 1018.2 0.0
03/06:00am 9.1 8.8 8.6 97 0.3 CALM 0 0 0 0 1019.5 1018.1 0.0
03/05:30am 11.0 11.3 10.8 99 0.1 CALM 0 0 0 0 1019.3 1017.9 0.0
03/05:00am 10.6 10.8 10.4 99 0.1 CALM 0 0 0 0 1019.1 1017.7 0.0
03/04:30am 9.4 9.1 8.8 96 0.3 CALM 0 4 0 2 1018.9 1017.5 0.0
03/04:00am 11.1 11.4 10.8 98 0.2 CALM 0 0 0 0 1018.9 1017.5 0.0
03/03:30am 10.7 10.8 10.1 96 0.3 CALM 0 2 0 1 1019.0 1017.6 0.0
03/03:00am 10.9 11.0 10.3 96 0.3 CALM 0 2 0 1 1019.3 1017.9 0.0
03/02:30am 12.9 13.4 12.7 99 0.1 NE 2 6 1 3 1019.5 1018.1 0.0
03/02:00am 12.9 13.3 12.6 98 0.2 NE 2 4 1 2 1019.7 1018.3 0.0
03/01:30am 13.1 13.8 12.3 95 0.4 CALM 0 0 0 0 1020.1 1018.6 0.0
03/01:00am 14.0 14.3 13.5 97 0.3 NE 4 6 2 3 1020.5 1019.1 0.0
03/12:30am 14.2 15.0 13.6 96 0.3 NE 2 4 1 2 1020.6 1019.2 0.0
03/12:00am 15.0 16.0 14.4 96 0.3 NE 2 4 1 2 1020.9 1019.5 0.0
 
Date/Time
EST
Temp
°C
App
Temp
°C
Dew
Point
Rel
Hum
%
Delta-T
°C
Wind Press
QNH
hPa
Press
MSL
hPa
Rain
since 9 am
mm
Dir
 
Spd
km/h
Gust
km/h
Spd
kts
Gust
kts
02/11:30pm 15.7 16.9 14.9 95 0.5 NE 2 6 1 3 1021.1 1019.7 0.0
02/11:00pm 15.9 17.3 15.3 96 0.4 NNE 2 7 1 4 1021.5 1020.1 0.0
02/10:30pm 15.9 16.8 15.1 95 0.5 NE 4 7 2 4 1021.7 1020.4 0.0
02/10:00pm 16.4 17.6 15.8 96 0.4 NE 4 9 2 5 1021.8 1020.5 0.0
02/09:30pm 16.4 17.6 15.8 96 0.4 ENE 4 9 2 5 1021.7 1020.4 0.0
02/09:00pm 16.5 17.7 16.0 97 0.3 NNE 4 7 2 4 1021.5 1020.1 0.0
02/08:30pm 16.3 17.0 16.0 98 0.2 NNE 7 13 4 7 1021.5 1020.1 0.0
02/08:00pm 16.1 16.8 15.6 97 0.3 NNE 6 9 3 5 1021.3 1019.9 0.0
02/07:30pm 16.0 16.5 15.0 94 0.6 NNE 6 11 3 6 1021.1 1019.7 0.0
02/07:00pm 16.2 16.3 14.4 89 1.1 NNE 7 15 4 8 1020.9 1019.5 0.0
02/06:30pm 16.6 16.3 13.3 81 1.9 NNE 7 11 4 6 1020.4 1019.0 0.0
02/06:00pm 17.4 17.1 13.3 77 2.4 N 7 15 4 8 1020.2 1018.8 0.0
02/05:30pm 18.5 18.4 13.8 74 2.8 N 7 11 4 6 1019.8 1018.4 0.0
02/05:00pm 19.7 19.5 13.6 68 3.6 NNE 7 15 4 8 1019.6 1018.2 0.0
02/04:30pm 20.7 20.1 13.6 64 4.2 NNE 9 17 5 9 1019.6 1018.2 0.0
02/04:00pm 21.0 20.5 13.7 63 4.3 NNE 9 17 5 9 1019.5 1018.1 0.0
02/03:30pm 21.6 20.9 13.2 59 4.9 NNE 9 13 5 7 1019.6 1018.2 0.0
02/03:00pm 20.5 19.4 13.0 62 4.4 NNE 11 19 6 10 1019.9 1018.5 0.0
02/02:30pm 20.8 20.0 13.0 61 4.6 NE 9 15 5 8 1020.3 1018.9 0.0
02/02:00pm 22.7 21.7 10.2 45 7.0 ENE 6 9 3 5 1020.4 1019.0 0.0
02/01:30pm 22.3 21.5 11.1 49 6.4 SSE 6 17 3 9 1020.6 1019.2 0.0
02/01:00pm 21.4 20.4 10.3 49 6.2 ESE 6 11 3 6 1020.9 1019.5 0.0
02/12:30pm 20.7 19.7 11.1 54 5.4 SE 7 13 4 7 1021.4 1020.0 0.0
02/12:00pm 21.3 21.5 11.9 55 5.4 SSE 2 9 1 5 1021.8 1020.5 0.0
02/11:30am 20.5 20.0 12.2 59 4.8 SSE 6 11 3 6 1022.5 1021.1 0.0
02/11:00am 21.1 20.6 12.5 58 5.0 SE 7 13 4 7 1023.0 1021.6 0.0
02/10:30am 20.5 19.3 11.7 57 5.0 ESE 9 17 5 9 1023.4 1022.1 0.0
02/10:00am 19.8 19.4 12.3 62 4.3 SE 6 11 3 6 1023.6 1022.3 0.0
02/09:30am 18.7 18.3 13.1 70 3.2 SSE 7 13 4 7 1023.6 1022.3 0.0
02/09:00am 18.4 18.6 14.1 76 2.5 SE 6 9 3 5 1023.5 1022.2 0.2
02/08:30am 16.9 18.1 14.9 88 1.2 E 2 6 1 3 1023.2 1021.8 0.2
02/08:00am 13.9 15.0 13.4 97 0.3 CALM 0 0 0 0 1022.9 1021.5 0.2
02/07:30am 11.1 11.4 10.8 98 0.2 CALM 0 0 0 0 1022.6 1021.2 0.2
02/07:00am 10.9 11.1 10.6 98 0.2 CALM 0 2 0 1 1022.3 1020.9 0.2
02/06:30am 11.6 12.0 11.3 98 0.2 CALM 0 0 0 0 1022.0 1020.6 0.2
02/06:00am 11.7 12.1 11.2 97 0.3 CALM 0 0 0 0 1021.6 1020.2 0.2
02/05:30am 12.6 13.3 12.1 97 0.3 CALM 0 2 0 1 1021.4 1020.0 0.0
02/05:00am 13.4 14.4 13.1 98 0.2 CALM 0 0 0 0 1021.3 1019.9 0.0
02/04:30am 13.6 14.6 13.1 97 0.3 CALM 0 0 0 0 1021.5 1020.1 0.0
02/04:00am 14.5 15.7 13.9 96 0.3 CALM 0 0 0 0 1021.4 1020.0 0.0
02/03:30am 15.4 17.0 14.9 97 0.3 CALM 0 0 0 0 1021.4 1020.0 0.0
02/03:00am 16.1 17.6 15.8 98 0.2 N 2 4 1 2 1021.6 1020.2 0.0
02/02:30am 15.7 17.1 15.4 98 0.2 N 2 4 1 2 1021.7 1020.4 0.0
02/02:00am 15.2 16.4 14.9 98 0.2 N 2 4 1 2 1022.2 1020.8 0.0
02/01:30am 15.0 16.1 14.5 97 0.3 N 2 4 1 2 1022.5 1021.1 0.0
02/01:00am 15.4 16.2 14.9 97 0.3 NNE 4 4 2 2 1022.7 1021.3 0.0
02/12:30am 15.6 16.5 15.0 96 0.4 NNE 4 6 2 3 1022.9 1021.5 0.0
02/12:00am 16.3 17.0 15.7 96 0.4 NE 6 9 3 5 1023.0 1021.6 0.0
 
Date/Time
EST
Temp
°C
App
Temp
°C
Dew
Point
Rel
Hum
%
Delta-T
°C
Wind Press
QNH
hPa
Press
MSL
hPa
Rain
since 9 am
mm
Dir
 
Spd
km/h
Gust
km/h
Spd
kts
Gust
kts
01/11:30pm 16.0 17.1 15.5 97 0.3 NE 4 6 2 3 1023.1 1021.7 0.0
01/11:00pm 15.8 16.7 15.0 95 0.5 NNE 4 7 2 4 1023.4 1022.1 0.0
01/10:30pm 15.9 16.8 15.1 95 0.5 NNE 4 6 2 3 1023.5 1022.2 0.0
01/10:00pm 16.1 16.7 15.3 95 0.5 NE 6 9 3 5 1023.5 1022.2 0.0
01/09:30pm 15.9 17.2 15.1 95 0.5 NNE 2 4 1 2 1023.3 1022.0 0.0
01/09:00pm 15.9 16.7 14.9 94 0.6 N 4 7 2 4 1023.2 1021.8 0.0
01/08:30pm 15.8 16.5 14.5 92 0.8 N 4 7 2 4 1023.0 1021.6 0.0
01/08:00pm 16.2 17.0 14.7 91 0.9 N 4 7 2 4 1022.8 1021.4 0.0
01/07:30pm 16.6 17.2 15.3 92 0.8 NNE 6 9 3 5 1022.6 1021.2 0.0
01/07:00pm 17.2 17.9 15.7 91 0.9 NNE 6 9 3 5 1022.2 1020.8 0.0
01/06:30pm 17.8 18.3 15.6 87 1.3 NNE 7 11 4 6 1022.0 1020.6 0.0
01/06:00pm 18.7 19.3 15.4 81 2.0 NNE 6 11 3 6 1021.6 1020.2 0.0
01/05:30pm 19.6 20.2 15.3 76 2.6 NNE 6 9 3 5 1021.5 1020.1 0.0
01/05:00pm 21.1 21.5 15.2 69 3.6 N 7 13 4 7 1021.3 1019.9 0.0
01/04:30pm 22.4 21.9 12.1 52 6.0 ENE 6 11 3 6 1021.0 1019.6 0.0
01/04:00pm 22.6 22.1 12.0 51 6.1 ESE 6 13 3 7 1020.9 1019.5 0.0
01/03:30pm 22.6 21.9 11.4 49 6.4 ESE 6 13 3 7 1020.8 1019.4 0.0
01/03:00pm 22.2 21.7 12.2 53 5.8 SE 6 11 3 6 1021.0 1019.6 0.0
01/02:30pm 22.3 21.9 12.5 53 5.7 SE 6 13 3 7 1021.3 1019.9 0.0
01/02:00pm 23.4 23.1 13.3 53 6.0 ESE 7 17 4 9 1021.5 1020.1 0.0
01/01:30pm 23.0 22.3 13.2 54 5.8 E 9 15 5 8 1022.0 1020.6 0.0
01/01:00pm 22.6 22.4 13.7 57 5.3 ESE 7 15 4 8 1022.5 1021.1 0.0
01/12:30pm 21.9 21.1 13.0 57 5.2 SE 9 22 5 12 1023.1 1021.7 0.0
01/12:00pm 21.6 21.2 13.0 58 5.0 SE 7 13 4 7 1023.5 1022.2 0.0

Other Formats:

Comma delimited format used in spreadsheet applications
http://www.bom.gov.au/fwo/IDQ60801/IDQ60801.95293.axf

JavaScript Object Notation format (JSON) in row-major order
http://www.bom.gov.au/fwo/IDQ60801/IDQ60801.95293.json